Time;durP1;ratioP1;P1;durP2;ratioP2;P2;SDS_P1;SDS_P2;PMS_P1;PMS_P2;Temp;Humidity;BMP_temperature;BMP_pressure;BME280_temperature;BME280_humidity;BME280_pressure;Samples;Min_cycle;Max_cycle;Signal;HPM_P1;HPM_P2
2021/05/04 00:01:49;;;;;;;5.50;3.53;;;10.80;68.00;;;;;;4955923;28;20077;-73
2021/05/04 00:04:14;;;;;;;7.10;3.47;;;10.80;68.20;;;;;;4955078;28;20117;-72
2021/05/04 00:06:40;;;;;;;4.55;3.10;;;10.80;68.30;;;;;;4973631;28;20023;-72
2021/05/04 00:09:06;;;;;;;5.13;3.40;;;10.70;68.70;;;;;;4954906;28;20031;-72
2021/05/04 00:11:32;;;;;;;4.75;3.65;;;10.70;68.40;;;;;;4955247;28;20097;-71
2021/05/04 00:13:58;;;;;;;5.22;3.80;;;10.70;68.60;;;;;;4954156;28;20031;-71
2021/05/04 00:16:24;;;;;;;6.13;3.28;;;10.70;69.10;;;;;;4973077;28;20054;-71
2021/05/04 00:18:50;;;;;;;4.97;3.17;;;10.70;69.00;;;;;;4955633;28;20047;-71
2021/05/04 00:21:15;;;;;;;4.10;3.17;;;10.70;68.90;;;;;;4955455;28;20030;-72
2021/05/04 00:23:41;;;;;;;5.90;3.35;;;10.60;69.10;;;;;;4975995;28;20114;-72
2021/05/04 00:26:11;;;;;;;3.33;2.70;;;10.70;69.40;;;;;;4956655;28;20027;-72
2021/05/04 00:28:37;;;;;;;6.03;3.75;;;10.70;69.10;;;;;;4973959;28;20034;-71
2021/05/04 00:31:03;;;;;;;4.53;3.00;;;10.70;69.50;;;;;;4956461;28;20035;-71
2021/05/04 00:33:29;;;;;;;4.57;3.35;;;10.60;69.70;;;;;;4957558;28;20042;-72
2021/05/04 00:35:55;;;;;;;3.55;3.00;;;10.60;69.70;;;;;;4959637;28;20045;-73
2021/05/04 00:38:22;;;;;;;4.68;3.33;;;10.60;69.90;;;;;;4954749;28;20472;-71
2021/05/04 00:40:47;;;;;;;6.03;3.30;;;10.50;70.10;;;;;;4954054;28;20023;-72
2021/05/04 00:43:13;;;;;;;8.40;4.03;;;10.60;70.00;;;;;;4953347;28;20499;-72
2021/05/04 00:45:39;;;;;;;5.03;3.40;;;10.70;70.00;;;;;;4950232;28;20047;-74
2021/05/04 00:48:05;;;;;;;4.45;3.28;;;10.70;69.80;;;;;;4950354;29;20081;-72
2021/05/04 00:50:31;;;;;;;7.75;3.50;;;10.80;69.70;;;;;;4952040;28;20043;-71
2021/05/04 00:52:57;;;;;;;5.72;2.90;;;10.90;69.50;;;;;;4950582;29;20102;-72
2021/05/04 00:55:23;;;;;;;4.07;2.95;;;10.90;69.20;;;;;;4951315;29;20037;-72
2021/05/04 00:57:49;;;;;;;4.88;3.28;;;10.90;68.80;;;;;;4950601;29;20031;-72
2021/05/04 01:00:15;;;;;;;3.33;2.55;;;10.80;69.00;;;;;;4951720;28;20047;-73
2021/05/04 01:02:43;;;;;;;10.82;3.20;;;10.90;69.00;;;;;;4950793;29;20070;-72
2021/05/04 01:05:09;;;;;;;3.35;2.92;;;10.80;69.40;;;;;;4950209;29;20039;-73
2021/05/04 01:07:36;;;;;;;5.82;3.25;;;10.80;69.90;;;;;;4950640;29;20093;-72
2021/05/04 01:10:02;;;;;;;4.38;3.25;;;10.80;69.70;;;;;;4950411;29;20046;-72
2021/05/04 01:12:28;;;;;;;4.30;3.58;;;10.80;69.40;;;;;;4951356;29;20027;-72
2021/05/04 01:14:53;;;;;;;4.72;2.70;;;10.80;69.40;;;;;;4951047;29;20179;-73
2021/05/04 01:17:19;;;;;;;5.03;3.22;;;10.80;69.30;;;;;;4949914;28;20738;-73
2021/05/04 01:19:45;;;;;;;7.13;3.30;;;10.80;69.40;;;;;;4952134;29;20027;-72
2021/05/04 01:22:12;;;;;;;4.82;3.22;;;10.80;69.40;;;;;;4951537;28;20027;-72
2021/05/04 01:24:38;;;;;;;4.95;2.85;;;10.80;69.00;;;;;;4950358;28;20028;-73
2021/05/04 01:27:04;;;;;;;4.45;2.88;;;10.80;69.30;;;;;;4949733;29;20072;-72
2021/05/04 01:29:30;;;;;;;3.53;2.85;;;10.90;69.00;;;;;;4950044;29;20039;-73
2021/05/04 01:31:56;;;;;;;5.88;2.95;;;10.90;68.90;;;;;;4951740;29;20028;-73
2021/05/04 01:34:22;;;;;;;5.40;2.90;;;11.00;68.80;;;;;;4951523;28;20061;-72
2021/05/04 01:36:48;;;;;;;4.88;2.47;;;11.10;68.10;;;;;;4950261;29;20027;-72
2021/05/04 01:39:14;;;;;;;5.75;3.47;;;11.10;68.10;;;;;;4951241;28;20201;-73
2021/05/04 01:41:40;;;;;;;5.70;3.30;;;11.20;68.10;;;;;;4950753;29;20122;-73
2021/05/04 01:44:08;;;;;;;6.00;2.83;;;11.30;67.00;;;;;;4949590;29;20039;-73
2021/05/04 01:46:34;;;;;;;4.00;3.50;;;11.40;66.70;;;;;;4950062;29;20458;-72
2021/05/04 01:49:07;;;;;;;4.60;2.53;;;11.40;66.90;;;;;;4951852;29;20035;-72
2021/05/04 01:51:35;;;;;;;3.95;2.85;;;11.50;65.80;;;;;;4951325;29;20107;-74
2021/05/04 01:54:00;;;;;;;3.67;2.90;;;11.60;65.80;;;;;;4950188;29;20031;-72
2021/05/04 01:56:26;;;;;;;5.53;2.75;;;11.60;65.90;;;;;;4950955;29;20038;-72
2021/05/04 01:58:55;;;;;;;4.68;2.97;;;11.60;65.50;;;;;;4950333;29;20070;-72
2021/05/04 02:01:21;;;;;;;3.97;2.72;;;11.60;65.60;;;;;;4951021;28;20111;-72
2021/05/04 02:03:46;;;;;;;2.53;2.10;;;11.70;65.60;;;;;;4951895;28;20118;-71
2021/05/04 02:06:12;;;;;;;3.22;2.30;;;11.60;65.20;;;;;;4952988;29;20031;-72
2021/05/04 02:08:38;;;;;;;2.80;2.30;;;11.70;65.50;;;;;;4953842;28;20131;-72
2021/05/04 02:11:05;;;;;;;4.63;2.38;;;11.70;65.40;;;;;;4953191;29;20501;-77
2021/05/04 02:13:30;;;;;;;9.90;2.70;;;11.70;65.60;;;;;;4955561;28;20185;-72
2021/05/04 02:15:56;;;;;;;7.40;2.40;;;11.70;65.70;;;;;;4955124;29;20031;-73
2021/05/04 02:18:22;;;;;;;3.35;2.33;;;11.70;65.60;;;;;;4954599;28;20039;-71
2021/05/04 02:20:47;;;;;;;4.68;2.60;;;11.70;65.70;;;;;;4953623;29;20058;-72
2021/05/04 02:23:13;;;;;;;2.25;1.80;;;11.60;65.70;;;;;;4953928;29;20031;-71
2021/05/04 02:25:39;;;;;;;3.92;2.05;;;11.70;65.80;;;;;;4954965;29;20035;-71
2021/05/04 02:28:04;;;;;;;3.17;2.47;;;11.70;65.60;;;;;;4953393;29;20027;-78
2021/05/04 02:30:32;;;;;;;4.20;2.00;;;11.70;65.80;;;;;;4953711;29;20041;-72
2021/05/04 02:32:57;;;;;;;2.22;2.00;;;11.60;65.70;;;;;;4954268;29;20098;-72
2021/05/04 02:35:23;;;;;;;7.68;2.40;;;11.70;65.80;;;;;;4954144;29;20027;-72
2021/05/04 02:37:49;;;;;;;3.60;2.08;;;11.70;65.70;;;;;;4954552;29;20331;-72
2021/05/04 02:40:15;;;;;;;3.13;2.20;;;11.70;65.70;;;;;;4954800;29;20074;-73
2021/05/04 02:42:40;;;;;;;3.53;2.10;;;11.70;65.20;;;;;;4956195;29;20053;-73
2021/05/04 02:45:06;;;;;;;5.85;2.00;;;11.70;65.50;;;;;;4954506;28;20058;-76
2021/05/04 02:47:32;;;;;;;2.42;1.73;;;11.70;65.80;;;;;;4953346;28;20078;-73
2021/05/04 02:49:58;;;;;;;5.18;1.77;;;11.70;66.20;;;;;;4954519;29;20155;-73
2021/05/04 02:52:23;;;;;;;2.85;2.00;;;11.60;66.20;;;;;;4955043;29;20055;-73
2021/05/04 02:54:49;;;;;;;2.10;1.90;;;11.70;66.30;;;;;;4955851;29;20050;-73
2021/05/04 02:57:16;;;;;;;2.17;1.73;;;11.70;66.50;;;;;;4955726;29;20082;-75
2021/05/04 02:59:42;;;;;;;2.63;2.03;;;11.60;66.60;;;;;;4955987;29;20175;-73
2021/05/04 03:02:07;;;;;;;2.30;1.95;;;11.60;66.80;;;;;;4957617;29;20086;-75
2021/05/04 03:04:33;;;;;;;6.25;2.03;;;11.60;67.20;;;;;;4956918;29;20027;-75
2021/05/04 03:06:59;;;;;;;3.35;2.80;;;11.50;67.30;;;;;;4956657;29;20027;-73
2021/05/04 03:09:24;;;;;;;3.58;2.40;;;11.50;68.30;;;;;;4956542;29;20090;-74
2021/05/04 03:11:50;;;;;;;5.32;2.65;;;11.50;67.70;;;;;;4958148;29;20054;-73
2021/05/04 03:14:16;;;;;;;2.17;1.98;;;11.50;68.00;;;;;;4954945;28;20070;-77
2021/05/04 03:16:41;;;;;;;2.55;1.98;;;11.50;68.10;;;;;;4955726;28;20054;-74
2021/05/04 03:19:07;;;;;;;7.72;2.30;;;11.40;68.50;;;;;;4957250;29;20413;-74
2021/05/04 03:21:33;;;;;;;5.25;2.22;;;11.30;68.50;;;;;;4957305;29;20122;-74
2021/05/04 03:23:58;;;;;;;5.38;2.40;;;11.40;68.80;;;;;;4954465;29;20433;-73
2021/05/04 03:26:24;;;;;;;3.47;2.47;;;11.30;69.00;;;;;;4955572;29;20034;-74
2021/05/04 03:28:49;;;;;;;5.18;2.10;;;11.30;69.30;;;;;;4955851;29;20035;-73
2021/05/04 03:31:15;;;;;;;5.93;2.35;;;11.30;69.20;;;;;;4955659;29;20038;-72
2021/05/04 03:33:41;;;;;;;3.28;2.03;;;11.30;69.40;;;;;;4956182;29;20035;-73
2021/05/04 03:36:06;;;;;;;3.78;2.25;;;11.30;69.60;;;;;;4955897;29;20030;-72
2021/05/04 03:38:33;;;;;;;4.45;2.30;;;11.30;69.80;;;;;;4955229;29;20465;-73
2021/05/04 03:40:59;;;;;;;3.38;2.22;;;11.20;69.90;;;;;;4956763;29;20125;-75
2021/05/04 03:43:25;;;;;;;4.45;2.28;;;11.20;70.30;;;;;;4954959;29;20131;-73
2021/05/04 03:45:51;;;;;;;4.30;2.45;;;11.20;70.40;;;;;;4955543;29;20083;-72
2021/05/04 03:48:17;;;;;;;6.63;2.50;;;11.10;70.50;;;;;;4939517;29;20034;-72
2021/05/04 03:50:44;;;;;;;5.32;2.88;;;11.10;70.80;;;;;;4956631;29;20544;-71
2021/05/04 03:53:10;;;;;;;2.72;2.20;;;11.10;71.10;;;;;;4954572;29;20031;-75
2021/05/04 03:55:36;;;;;;;3.70;1.90;;;11.10;71.30;;;;;;4956495;28;20027;-73
2021/05/04 03:58:01;;;;;;;2.53;1.85;;;11.10;71.40;;;;;;4956355;29;20030;-73
2021/05/04 04:00:27;;;;;;;2.72;2.05;;;11.10;71.50;;;;;;4956902;29;20401;-73
2021/05/04 04:02:52;;;;;;;4.05;2.08;;;11.20;71.80;;;;;;4956892;29;20077;-74
2021/05/04 04:05:18;;;;;;;2.17;1.60;;;11.10;71.70;;;;;;4955321;29;20030;-74
2021/05/04 04:07:44;;;;;;;3.17;2.00;;;11.10;71.90;;;;;;4954550;29;20035;-72
2021/05/04 04:10:12;;;;;;;4.10;2.22;;;11.00;72.20;;;;;;4955158;29;20103;-79
2021/05/04 04:12:38;;;;;;;3.72;2.38;;;10.90;72.70;;;;;;4955643;29;20062;-72
2021/05/04 04:15:04;;;;;;;2.75;2.00;;;11.00;72.70;;;;;;4955878;28;20122;-73
2021/05/04 04:17:30;;;;;;;9.60;4.38;;;11.00;73.00;;;;;;4955110;29;20031;-72
2021/05/04 04:19:55;;;;;;;2.78;2.03;;;10.90;72.90;;;;;;4960241;28;20035;-72
2021/05/04 04:22:21;;;;;;;8.88;2.25;;;11.00;73.10;;;;;;4955263;29;20098;-74
2021/05/04 04:24:47;;;;;;;4.13;1.75;;;11.10;73.40;;;;;;4954459;29;20031;-72
2021/05/04 04:27:12;;;;;;;3.90;2.53;;;11.00;74.10;;;;;;4954550;28;20031;-74
2021/05/04 04:29:38;;;;;;;4.65;2.75;;;11.10;73.40;;;;;;4956287;29;20094;-72
2021/05/04 04:32:05;;;;;;;7.15;2.10;;;11.10;73.50;;;;;;4960600;28;20095;-73
2021/05/04 04:34:30;;;;;;;3.85;2.65;;;11.10;73.40;;;;;;4960965;29;20023;-73
2021/05/04 04:36:56;;;;;;;5.93;3.40;;;11.10;73.50;;;;;;4960793;29;20081;-74
2021/05/04 04:39:22;;;;;;;5.47;2.40;;;11.10;73.50;;;;;;4961261;29;20032;-75
2021/05/04 04:41:48;;;;;;;7.05;2.00;;;11.20;73.40;;;;;;4960402;28;20031;-71
2021/05/04 04:44:14;;;;;;;12.10;2.55;;;11.20;73.30;;;;;;4961073;29;20035;-74
2021/05/04 04:46:40;;;;;;;3.65;2.28;;;11.20;73.60;;;;;;4956096;29;20139;-72
2021/05/04 04:49:11;;;;;;;6.88;2.45;;;11.20;73.80;;;;;;4956901;29;20093;-72
2021/05/04 04:51:37;;;;;;;5.55;1.98;;;11.20;73.70;;;;;;4954826;29;20117;-73
2021/05/04 04:54:04;;;;;;;3.80;2.17;;;11.20;73.60;;;;;;4958807;29;20031;-75
2021/05/04 04:56:29;;;;;;;6.20;2.55;;;11.20;73.90;;;;;;4958254;28;20106;-72
2021/05/04 04:58:55;;;;;;;7.18;2.72;;;11.30;73.90;;;;;;4958480;28;20059;-72
2021/05/04 05:01:21;;;;;;;4.80;2.28;;;11.20;73.70;;;;;;4957371;28;20063;-77
2021/05/04 05:03:47;;;;;;;7.47;2.70;;;11.30;73.60;;;;;;4957450;29;20430;-72
2021/05/04 05:06:12;;;;;;;5.25;2.30;;;11.20;74.10;;;;;;4957877;29;20071;-75
2021/05/04 05:08:38;;;;;;;2.25;2.05;;;11.20;74.30;;;;;;4955972;29;20137;-73
2021/05/04 05:11:04;;;;;;;3.90;2.67;;;11.20;74.10;;;;;;4956557;28;20059;-68
2021/05/04 05:13:29;;;;;;;6.20;2.45;;;11.20;74.00;;;;;;4956454;29;20039;-70
2021/05/04 05:15:55;;;;;;;3.90;1.92;;;11.20;74.20;;;;;;4957427;29;20070;-73
2021/05/04 05:18:20;;;;;;;4.03;2.08;;;11.20;74.30;;;;;;4958655;29;20061;-69
2021/05/04 05:20:46;;;;;;;5.63;2.50;;;11.20;74.30;;;;;;4958084;29;20027;-73
2021/05/04 05:23:12;;;;;;;5.90;2.30;;;11.20;74.30;;;;;;4957878;29;20118;-70
2021/05/04 05:25:39;;;;;;;4.10;2.67;;;11.20;75.00;;;;;;4958986;29;20473;-73
2021/05/04 05:28:05;;;;;;;3.58;2.15;;;11.20;74.50;;;;;;4957935;29;20028;-72
2021/05/04 05:30:31;;;;;;;5.28;1.60;;;11.20;74.80;;;;;;4958462;28;20077;-72
2021/05/04 05:32:57;;;;;;;6.13;2.35;;;11.20;74.50;;;;;;4958778;28;20074;-73
2021/05/04 05:35:23;;;;;;;5.40;2.22;;;11.30;74.70;;;;;;4956382;29;20027;-75
2021/05/04 05:37:48;;;;;;;3.50;1.95;;;11.20;74.70;;;;;;4956074;28;20051;-73
2021/05/04 05:40:14;;;;;;;4.97;2.15;;;11.30;74.70;;;;;;4957664;28;20034;-71
2021/05/04 05:42:40;;;;;;;4.75;2.50;;;11.30;74.70;;;;;;4958843;29;20116;-74
2021/05/04 05:45:06;;;;;;;3.85;1.80;;;11.20;75.10;;;;;;4957427;29;20059;-74
2021/05/04 05:47:32;;;;;;;8.85;4.03;;;11.30;75.20;;;;;;4957441;29;20032;-72
2021/05/04 05:49:58;;;;;;;12.43;2.75;;;11.20;75.60;;;;;;4956560;29;20089;-75
2021/05/04 05:52:24;;;;;;;5.25;2.30;;;11.20;75.80;;;;;;4957797;29;20114;-72
2021/05/04 05:54:49;;;;;;;6.57;2.55;;;11.20;76.10;;;;;;4957818;29;20424;-74
2021/05/04 05:57:16;;;;;;;8.38;2.83;;;11.20;76.10;;;;;;4956392;29;20031;-73
2021/05/04 05:59:42;;;;;;;3.20;2.17;;;11.20;76.50;;;;;;4955203;29;20046;-72
2021/05/04 06:02:07;;;;;;;3.15;1.98;;;11.20;76.70;;;;;;4956758;29;20031;-79
2021/05/04 06:04:33;;;;;;;3.10;2.10;;;11.20;76.80;;;;;;4957534;28;20038;-72
2021/05/04 06:06:59;;;;;;;3.03;2.38;;;11.20;76.80;;;;;;4957642;29;20288;-74
2021/05/04 06:09:25;;;;;;;5.63;2.75;;;11.20;77.00;;;;;;4959000;28;20031;-76
2021/05/04 06:11:51;;;;;;;9.52;2.33;;;11.30;76.90;;;;;;4958656;29;20062;-74
2021/05/04 06:14:17;;;;;;;8.30;2.78;;;11.30;77.00;;;;;;4957625;29;20027;-77
2021/05/04 06:16:43;;;;;;;6.90;2.40;;;11.30;77.00;;;;;;4956576;28;20470;-71
2021/05/04 06:19:08;;;;;;;4.28;2.17;;;11.30;76.90;;;;;;4956337;28;20031;-73
2021/05/04 06:21:34;;;;;;;10.57;2.55;;;11.40;76.70;;;;;;4956572;28;20433;-72
2021/05/04 06:24:00;;;;;;;4.50;1.80;;;11.40;76.80;;;;;;4955418;29;20458;-73
2021/05/04 06:26:26;;;;;;;7.03;2.33;;;11.40;76.40;;;;;;4953413;28;20059;-73
2021/05/04 06:28:51;;;;;;;4.95;1.85;;;11.50;76.50;;;;;;4953378;29;20051;-72
2021/05/04 06:31:18;;;;;;;7.95;1.90;;;11.60;75.90;;;;;;4952400;28;20419;-78
2021/05/04 06:33:45;;;;;;;5.90;2.00;;;11.60;75.30;;;;;;4954036;28;20181;-70
2021/05/04 06:36:12;;;;;;;8.98;1.80;;;11.60;74.50;;;;;;4955010;29;20038;-73
2021/05/04 06:38:39;;;;;;;5.50;2.10;;;11.70;74.00;;;;;;4956607;28;20429;-72
2021/05/04 06:41:04;;;;;;;3.25;1.80;;;11.90;73.00;;;;;;4955697;29;20032;-73
2021/05/04 06:43:31;;;;;;;6.13;2.38;;;11.90;70.90;;;;;;4954694;29;20106;-74
2021/05/04 06:45:57;;;;;;;7.35;1.88;;;12.00;71.30;;;;;;4967675;28;20055;-74
2021/05/04 06:48:23;;;;;;;4.93;1.17;;;12.10;70.80;;;;;;4975008;28;20070;-72
2021/05/04 06:50:49;;;;;;;11.27;1.27;;;12.30;65.80;;;;;;4960924;28;20042;-73
2021/05/04 06:53:15;;;;;;;6.32;1.48;;;12.40;64.80;;;;;;4960966;28;20026;-73
2021/05/04 06:55:41;;;;;;;11.18;1.50;;;12.50;63.30;;;;;;4961117;28;20039;-74
2021/05/04 06:58:07;;;;;;;31.88;2.00;;;12.50;62.90;;;;;;4960249;28;20026;-71
2021/05/04 07:00:33;;;;;;;8.70;1.15;;;12.60;63.00;;;;;;4959324;28;20118;-74
2021/05/04 07:03:02;;;;;;;20.80;3.80;;;12.60;62.60;;;;;;4960600;28;20105;-72
2021/05/04 07:05:28;;;;;;;11.40;1.70;;;12.60;63.00;;;;;;4977505;28;20019;-74
2021/05/04 07:07:53;;;;;;;5.32;1.25;;;12.70;63.30;;;;;;4959063;28;20476;-72
2021/05/04 07:10:19;;;;;;;7.05;1.30;;;12.70;63.80;;;;;;4959039;28;20457;-73
2021/05/04 07:12:45;;;;;;;4.95;1.02;;;12.70;64.10;;;;;;4957992;28;20496;-73
2021/05/04 07:15:11;;;;;;;7.22;1.40;;;12.70;64.60;;;;;;4977936;28;20464;-72
2021/05/04 07:17:37;;;;;;;8.07;1.10;;;12.50;66.30;;;;;;4977528;28;20337;-71
2021/05/04 07:20:04;;;;;;;3.95;0.93;;;12.50;67.10;;;;;;4975026;28;20097;-73
2021/05/04 07:22:30;;;;;;;3.42;1.90;;;12.40;68.50;;;;;;4974978;28;20034;-74
2021/05/04 07:24:56;;;;;;;5.68;1.15;;;12.40;69.40;;;;;;4968642;28;20030;-72
2021/05/04 07:27:22;;;;;;;4.25;1.45;;;12.40;70.50;;;;;;4956407;28;20050;-73
2021/05/04 07:29:48;;;;;;;5.55;1.17;;;12.40;72.40;;;;;;4955404;28;20035;-72
2021/05/04 07:32:18;;;;;;;10.02;0.95;;;12.30;73.70;;;;;;4958654;28;20031;-72
2021/05/04 07:34:45;;;;;;;4.15;1.20;;;12.10;75.30;;;;;;4980786;28;20053;-76
2021/05/04 07:37:11;;;;;;;5.55;0.90;;;12.00;78.30;;;;;;4962651;28;20033;-72
2021/05/04 07:39:37;;;;;;;2.38;0.85;;;11.80;81.70;;;;;;4962609;28;20480;-76
2021/05/04 07:42:04;;;;;;;4.90;1.05;;;11.60;84.10;;;;;;4979631;28;20093;-74
2021/05/04 07:44:29;;;;;;;3.97;1.02;;;11.50;84.90;;;;;;4978548;28;20062;-74
2021/05/04 07:46:55;;;;;;;2.40;1.02;;;11.30;85.80;;;;;;4979072;28;20041;-73
2021/05/04 07:49:28;;;;;;;3.58;1.13;;;11.30;88.40;;;;;;4963756;28;20038;-73
2021/05/04 07:51:53;;;;;;;1.67;0.85;;;11.30;90.10;;;;;;4973594;28;20034;-74
2021/05/04 07:54:19;;;;;;;4.85;1.08;;;11.40;89.50;;;;;;4975002;28;20140;-75
2021/05/04 07:56:45;;;;;;;7.45;1.25;;;11.40;91.00;;;;;;4955729;28;20027;-71
2021/05/04 07:59:11;;;;;;;3.65;0.95;;;11.40;91.10;;;;;;4955916;28;20044;-71
2021/05/04 08:01:37;;;;;;;12.05;1.45;;;11.40;91.30;;;;;;4958597;28;20089;-72
2021/05/04 08:04:03;;;;;;;3.03;1.27;;;11.40;92.10;;;;;;4959643;28;20038;-69
2021/05/04 08:06:29;;;;;;;5.38;1.20;;;11.40;92.90;;;;;;4977049;28;20066;-70
2021/05/04 08:08:55;;;;;;;4.15;0.80;;;11.40;93.60;;;;;;4977335;28;20066;-73
2021/05/04 08:11:21;;;;;;;6.03;1.17;;;11.30;93.90;;;;;;4978443;28;20090;-73
2021/05/04 08:13:46;;;;;;;2.88;1.40;;;11.30;96.70;;;;;;4977189;28;20034;-74
2021/05/04 08:16:14;;;;;;;1.88;1.20;;;11.50;94.70;;;;;;4978174;28;20043;-73
2021/05/04 08:18:42;;;;;;;5.55;1.50;;;11.20;97.50;;;;;;4958510;28;20215;-72
2021/05/04 08:21:08;;;;;;;3.38;1.30;;;11.10;97.00;;;;;;4959282;28;20038;-73
2021/05/04 08:23:34;;;;;;;5.13;1.13;;;11.20;97.80;;;;;;4975814;28;20027;-75
2021/05/04 08:26:00;;;;;;;2.22;1.10;;;11.10;97.10;;;;;;4959794;28;20133;-73
2021/05/04 08:28:25;;;;;;;6.05;1.00;;;11.20;97.30;;;;;;4959151;28;20035;-75
2021/05/04 08:30:51;;;;;;;3.00;1.17;;;11.30;97.00;;;;;;4977165;28;20046;-72
2021/05/04 08:33:18;;;;;;;4.13;1.08;;;11.30;96.90;;;;;;4975550;28;20102;-71
2021/05/04 08:35:44;;;;;;;1.85;1.00;;;11.30;95.60;;;;;;4957872;28;20041;-73
2021/05/04 08:38:11;;;;;;;3.92;1.50;;;11.30;96.20;;;;;;4958016;28;20473;-75
2021/05/04 08:40:37;;;;;;;3.22;1.30;;;11.40;95.30;;;;;;4959258;28;20076;-74
2021/05/04 08:43:03;;;;;;;6.22;1.10;;;11.50;95.30;;;;;;4974923;28;20027;-73
2021/05/04 08:45:32;;;;;;;1.85;1.00;;;11.50;95.60;;;;;;4955223;28;20083;-74
2021/05/04 08:47:58;;;;;;;4.50;1.00;;;11.60;94.70;;;;;;4975671;28;20149;-74
2021/05/04 08:50:24;;;;;;;3.55;0.77;;;11.60;94.60;;;;;;4957366;28;20089;-74
2021/05/04 08:52:51;;;;;;;4.20;1.15;;;11.60;94.40;;;;;;4976109;28;20133;-73
2021/05/04 08:55:18;;;;;;;1.80;0.80;;;11.60;94.40;;;;;;4975985;28;20065;-72
2021/05/04 08:57:44;;;;;;;6.35;1.20;;;11.70;94.00;;;;;;4976988;28;20065;-74
2021/05/04 09:00:14;;;;;;;3.70;1.30;;;11.70;94.50;;;;;;4958453;28;20373;-72
2021/05/04 09:03:06;;;;;;;1.13;0.90;;;11.70;94.10;;;;;;4976551;28;20066;-75
2021/05/04 09:05:36;;;;;;;1.10;0.70;;;11.70;93.80;;;;;;4959913;28;20057;-74
2021/05/04 09:08:06;;;;;;;3.00;0.82;;;11.60;93.80;;;;;;4959802;28;20045;-76
2021/05/04 09:10:39;;;;;;;6.85;1.00;;;11.70;94.30;;;;;;4977837;28;20034;-75
2021/05/04 09:13:34;;;;;;;6.80;0.85;;;11.70;94.30;;;;;;4962808;28;20038;-73
2021/05/04 09:16:26;;;;;;;1.42;1.00;;;11.80;94.10;;;;;;4983970;28;20035;-75
2021/05/04 09:19:07;;;;;;;8.05;0.90;;;11.70;94.30;;;;;;4983150;28;20103;-72
2021/05/04 09:21:34;;;;;;;4.05;1.00;;;11.70;94.50;;;;;;4964320;28;20076;-73
2021/05/04 09:24:25;;;;;;;2.78;1.17;;;11.70;94.70;;;;;;4964103;28;20120;-73
2021/05/04 09:26:58;;;;;;;2.30;0.98;;;11.70;94.90;;;;;;4964483;28;20420;-74
2021/05/04 09:29:30;;;;;;;1.73;1.40;;;11.70;95.30;;;;;;4979088;28;20078;-75
2021/05/04 09:32:17;;;;;;;2.00;0.77;;;11.70;95.30;;;;;;4948196;28;20042;-75
2021/05/04 09:34:45;;;;;;;2.28;1.05;;;11.70;95.70;;;;;;4962199;28;20135;-73
2021/05/04 09:37:25;;;;;;;3.13;0.95;;;11.70;95.70;;;;;;4962559;28;20129;-75
2021/05/04 09:39:51;;;;;;;3.60;1.02;;;11.60;96.00;;;;;;4980722;28;20062;-75
2021/05/04 09:42:17;;;;;;;4.38;1.50;;;11.60;96.00;;;;;;4964277;28;20031;-70
2021/05/04 09:44:46;;;;;;;1.20;1.10;;;11.50;96.20;;;;;;4961636;28;20050;-71
2021/05/04 09:47:17;;;;;;;2.42;1.20;;;11.50;96.50;;;;;;4962655;28;20057;-74
2021/05/04 09:49:43;;;;;;;5.38;1.15;;;11.60;96.80;;;;;;4962847;28;20027;-75
2021/05/04 09:55:01;;;;;;;4.07;1.15;;;11.50;97.40;;;;;;4978122;28;20066;-71
2021/05/04 09:57:31;;;;;;;6.80;1.48;;;11.40;97.50;;;;;;4959771;28;20408;-70
2021/05/04 09:59:57;;;;;;;4.97;1.13;;;11.40;97.60;;;;;;4960372;28;20125;-74
2021/05/04 10:02:23;;;;;;;3.90;1.05;;;11.50;97.90;;;;;;4958779;28;20110;-73
2021/05/04 10:04:53;;;;;;;4.13;1.00;;;11.50;97.80;;;;;;4957870;28;20450;-69
2021/05/04 10:07:20;;;;;;;4.53;1.00;;;11.60;97.80;;;;;;4960687;28;20098;-77
2021/05/04 10:09:50;;;;;;;5.18;1.38;;;11.50;98.00;;;;;;4959464;28;20038;-72
2021/05/04 10:12:22;;;;;;;5.45;0.98;;;11.50;98.10;;;;;;4960278;28;20469;-72
2021/05/04 10:14:51;;;;;;;3.92;0.85;;;11.50;98.40;;;;;;4977571;28;20026;-72
2021/05/04 10:17:17;;;;;;;3.63;1.00;;;11.50;98.70;;;;;;4977102;28;20022;-75
2021/05/04 10:19:43;;;;;;;8.55;1.50;;;11.50;98.50;;;;;;4959361;28;20077;-72
2021/05/04 10:22:11;;;;;;;2.03;1.00;;;11.60;98.70;;;;;;4976134;28;20030;-76
2021/05/04 10:24:39;;;;;;;10.50;0.98;;;11.60;98.60;;;;;;4958837;28;20033;-75
2021/05/04 10:27:07;;;;;;;3.90;1.35;;;11.60;98.60;;;;;;4959061;28;20481;-74
2021/05/04 10:29:36;;;;;;;1.33;0.98;;;11.60;98.80;;;;;;4960563;28;20031;-72
2021/05/04 10:32:03;;;;;;;3.95;1.20;;;11.50;99.20;;;;;;4959671;28;20058;-72
2021/05/04 10:34:35;;;;;;;4.45;1.23;;;11.40;99.40;;;;;;4976963;28;20353;-72
2021/05/04 10:37:03;;;;;;;2.92;1.13;;;11.40;99.60;;;;;;4977633;28;20066;-72
2021/05/04 10:39:33;;;;;;;1.83;1.20;;;11.40;99.80;;;;;;4960063;28;20028;-71
2021/05/04 10:42:00;;;;;;;16.60;1.60;;;11.30;99.90;;;;;;4961862;28;20062;-72
2021/05/04 10:44:26;;;;;;;1.42;1.02;;;11.40;99.90;;;;;;4959160;28;20034;-71
2021/05/04 10:46:52;;;;;;;1.92;0.60;;;11.30;99.90;;;;;;4959245;28;20059;-71
2021/05/04 10:49:19;;;;;;;5.80;0.90;;;11.30;99.90;;;;;;4959406;28;20035;-74
2021/05/04 10:51:53;;;;;;;3.22;1.17;;;11.30;99.90;;;;;;4959351;28;20034;-71
2021/05/04 10:54:20;;;;;;;1.63;1.00;;;11.20;99.90;;;;;;4959215;28;20058;-78
2021/05/04 10:56:47;;;;;;;1.40;0.82;;;11.20;99.90;;;;;;4958903;28;20552;-73
2021/05/04 10:59:20;;;;;;;1.35;0.85;;;11.30;99.90;;;;;;4976704;28;20074;-74
2021/05/04 11:02:15;;;;;;;2.55;1.27;;;11.20;99.90;;;;;;4976827;28;20034;-72
2021/05/04 11:04:42;;;;;;;4.05;1.60;;;11.20;99.90;;;;;;4930499;28;20046;-70
2021/05/04 11:07:08;;;;;;;4.80;1.13;;;11.20;99.90;;;;;;4977072;28;20030;-72
2021/05/04 11:09:40;;;;;;;2.40;1.25;;;11.20;99.90;;;;;;4958829;28;20035;-73
2021/05/04 11:12:09;;;;;;;4.15;1.90;;;11.30;99.90;;;;;;4958910;28;20362;-72
2021/05/04 11:14:39;;;;;;;2.05;1.20;;;11.20;99.90;;;;;;4958307;28;20027;-73
2021/05/04 11:17:07;;;;;;;1.75;1.33;;;11.20;99.90;;;;;;4976005;28;20038;-74
2021/05/04 11:19:37;;;;;;;2.83;1.20;;;11.30;99.90;;;;;;4957691;28;20030;-72
2021/05/04 11:22:12;;;;;;;5.55;1.73;;;11.30;99.90;;;;;;4956645;28;20027;-72
2021/05/04 11:24:41;;;;;;;6.57;1.60;;;11.40;99.90;;;;;;4973283;28;20101;-75
2021/05/04 11:27:09;;;;;;;5.25;1.20;;;11.40;99.90;;;;;;4957311;28;20058;-72
2021/05/04 11:29:36;;;;;;;2.10;0.88;;;11.50;99.90;;;;;;4973858;28;20481;-73
2021/05/04 11:32:17;;;;;;;1.45;1.10;;;11.50;99.90;;;;;;4974801;28;20035;-69
2021/05/04 11:35:07;;;;;;;3.03;1.27;;;11.40;99.90;;;;;;4958383;28;20031;-74
2021/05/04 11:37:37;;;;;;;3.90;1.40;;;11.40;99.90;;;;;;4934340;29;20048;-75
2021/05/04 11:40:24;;;;;;;2.95;1.00;;;11.40;99.90;;;;;;4919484;29;20485;-71
2021/05/04 11:43:00;;;;;;;6.07;1.35;;;11.40;99.90;;;;;;4920090;29;20038;-72
2021/05/04 11:45:33;;;;;;;6.03;1.13;;;11.50;99.90;;;;;;4919066;29;20196;-75
2021/05/04 11:48:10;;;;;;;3.08;1.40;;;11.50;99.90;;;;;;4936018;29;20044;-72
2021/05/04 11:50:38;;;;;;;4.93;1.30;;;11.50;99.90;;;;;;4934870;29;20119;-72
2021/05/04 11:53:05;;;;;;;0.95;0.88;;;11.50;99.90;;;;;;4917698;29;20114;-71
2021/05/04 11:55:34;;;;;;;2.22;1.10;;;11.50;99.90;;;;;;4934315;29;20044;-73
2021/05/04 11:58:05;;;;;;;2.45;1.10;;;11.60;99.90;;;;;;4918860;29;20028;-70
2021/05/04 12:00:33;;;;;;;;;;;11.60;99.90;;;;;;4917748;29;20122;-71
2021/05/04 12:03:10;;;;;;;2.90;1.05;;;11.90;99.90;;;;;;4932468;29;19910;-72
2021/05/04 12:05:37;;;;;;;5.60;1.20;;;11.90;99.90;;;;;;4916824;29;20145;-73
2021/05/04 12:08:03;;;;;;;2.13;0.90;;;11.80;99.90;;;;;;4917146;29;20043;-69
2021/05/04 12:10:31;;;;;;;3.17;0.95;;;11.80;99.90;;;;;;4915854;29;20063;-74
2021/05/04 12:13:02;;;;;;;2.58;1.20;;;11.70;99.90;;;;;;4916504;29;20230;-72
2021/05/04 12:15:31;;;;;;;2.50;0.93;;;11.80;99.90;;;;;;4951610;29;20047;-74
2021/05/04 12:18:08;;;;;;;3.33;0.77;;;11.80;99.90;;;;;;4955662;28;20059;-72
2021/05/04 12:20:48;;;;;;;1.00;0.90;;;11.80;99.90;;;;;;4953733;28;20031;-72
2021/05/04 12:23:26;;;;;;;2.15;1.10;;;11.80;99.90;;;;;;4954408;28;20106;-71
2021/05/04 12:25:58;;;;;;;1.92;1.00;;;11.90;99.90;;;;;;4953490;28;20063;-70
2021/05/04 12:28:27;;;;;;;;;;;12.00;99.90;;;;;;4953705;28;20031;-71
2021/05/04 12:31:02;;;;;;;3.67;0.77;;;12.20;99.90;;;;;;4952967;28;19911;-72
2021/05/04 12:33:28;;;;;;;3.30;1.10;;;12.10;99.90;;;;;;4952796;29;20087;-71
2021/05/04 12:36:18;;;;;;;8.80;1.40;;;12.00;99.90;;;;;;4954865;28;20034;-72
2021/05/04 12:38:58;;;;;;;3.95;1.00;;;12.10;99.90;;;;;;4953726;28;20039;-74
2021/05/04 12:41:33;;;;;;;7.22;1.23;;;12.00;99.90;;;;;;4953159;28;20053;-70
2021/05/04 12:44:10;;;;;;;1.45;0.73;;;12.00;99.90;;;;;;4953900;28;20035;-68
2021/05/04 12:46:47;;;;;;;3.90;1.05;;;12.10;99.90;;;;;;4967772;28;20110;-73
2021/05/04 12:49:13;;;;;;;4.45;1.40;;;12.10;99.90;;;;;;4975007;28;20034;-72
2021/05/04 12:51:55;;;;;;;2.13;0.70;;;12.10;99.90;;;;;;4956830;28;20031;-72
2021/05/04 12:54:22;;;;;;;1.90;0.85;;;12.20;99.90;;;;;;4958183;28;20469;-77